UAL5592 SVMI-SKBO
Flight info
| Callsign | UAL5592 |
|---|---|
| Flight time | 1h 39m |
| Altitude | 38000 |
| Route | BUTSA2 PBL UP533 BNS UW50 KIKAS UW44 BUV/N0445F240 A567 VULAM VULAM6D |
| Aircraft | B38M/M-SDE1FGHILORVWXY/HB1 |
Departure
| Time | 2025-10-04 22:10 |
|---|---|
| Airport | Maiquetía Simón Bolívar International Airport (SVMI) |
Arrival
| Time | 2025-10-04 23:49 |
|---|---|
| Airport | El Dorado International Airport (SKBO) |
| Time | Latitude | Longitude | Altitude | Speed | Heading |
|---|---|---|---|---|---|
| 2025-10-04 21:36 | 10.59827 | -67.00518 | 231 ft | 0 kts | 178° |
| 2025-10-04 21:58 | 10.59892 | -67.00512 | 231 ft | 2 kts | 199° |
| 2025-10-04 21:59 | 10.59918 | -67.00492 | 230 ft | 2 kts | 249° |
| 2025-10-04 21:59 | 10.59921 | -67.00478 | 230 ft | 0 kts | 268° |
| 2025-10-04 22:03 | 10.59918 | -67.00547 | 231 ft | 8 kts | 268° |
| 2025-10-04 22:03 | 10.59913 | -67.00664 | 233 ft | 9 kts | 268° |
| 2025-10-04 22:04 | 10.59910 | -67.00800 | 236 ft | 10 kts | 270° |
| 2025-10-04 22:04 | 10.59905 | -67.00953 | 238 ft | 11 kts | 267° |
| 2025-10-04 22:05 | 10.59901 | -67.01122 | 241 ft | 12 kts | 268° |
| 2025-10-04 22:05 | 10.59930 | -67.01235 | 244 ft | 9 kts | 345° |
| 2025-10-04 22:06 | 10.60076 | -67.01246 | 243 ft | 13 kts | 359° |
| 2025-10-04 22:07 | 10.60170 | -67.01248 | 241 ft | 8 kts | 360° |
| 2025-10-04 22:08 | 10.60217 | -67.01198 | 238 ft | 5 kts | 86° |
| 2025-10-04 22:08 | 10.60218 | -67.01185 | 238 ft | 14 kts | 86° |
| 2025-10-04 22:09 | 10.60258 | -66.99880 | 219 ft | 161 kts | 89° |
| 2025-10-04 22:09 | 10.60523 | -66.97403 | 1448 ft | 189 kts | 78° |
| 2025-10-04 22:10 | 10.60822 | -66.96061 | 2230 ft | 196 kts | 77° |
| 2025-10-04 22:10 | 10.61388 | -66.93123 | 3267 ft | 230 kts | 79° |
| 2025-10-04 22:11 | 10.65316 | -66.90386 | 5489 ft | 262 kts | 2° |
| 2025-10-04 22:11 | 10.69159 | -66.90211 | 6758 ft | 289 kts | 3° |
| 2025-10-04 22:12 | 10.73207 | -66.90045 | 8293 ft | 295 kts | 2° |
| 2025-10-04 22:12 | 10.77343 | -66.89880 | 10052 ft | 296 kts | 1° |
| 2025-10-04 22:13 | 10.81498 | -66.90494 | 11248 ft | 322 kts | 330° |
| 2025-10-04 22:13 | 10.83897 | -66.93446 | 12212 ft | 339 kts | 288° |
| 2025-10-04 22:14 | 10.84222 | -66.95820 | 12813 ft | 346 kts | 266° |
| 2025-10-04 22:14 | 10.82451 | -67.00312 | 14187 ft | 352 kts | 229° |
| 2025-10-04 22:15 | 10.77902 | -67.06312 | 16367 ft | 361 kts | 232° |
| 2025-10-04 22:16 | 10.73259 | -67.12490 | 18155 ft | 374 kts | 232° |
| 2025-10-04 22:16 | 10.71673 | -67.14600 | 18691 ft | 378 kts | 232° |
| 2025-10-04 22:16 | 10.68441 | -67.18895 | 19805 ft | 384 kts | 232° |
| 2025-10-04 22:17 | 10.65182 | -67.23224 | 20841 ft | 390 kts | 232° |
| 2025-10-04 22:17 | 10.61852 | -67.27647 | 21815 ft | 396 kts | 232° |
| 2025-10-04 22:18 | 10.60172 | -67.29879 | 22457 ft | 393 kts | 231° |
| 2025-10-04 22:18 | 10.56805 | -67.34345 | 23210 ft | 404 kts | 232° |
| 2025-10-04 22:19 | 10.51634 | -67.41206 | 24457 ft | 412 kts | 231° |
| 2025-10-04 22:20 | 10.40991 | -67.55309 | 26808 ft | 425 kts | 232° |
| 2025-10-04 22:22 | 10.28163 | -67.72285 | 29189 ft | 440 kts | 232° |
| 2025-10-04 22:24 | 10.11082 | -67.94847 | 31745 ft | 456 kts | 233° |
| 2025-10-04 22:26 | 9.95390 | -68.15536 | 32724 ft | 463 kts | 232° |
| 2025-10-04 22:28 | 9.79717 | -68.36138 | 36505 ft | 458 kts | 233° |
| 2025-10-04 22:30 | 9.66255 | -68.53818 | 37942 ft | 448 kts | 234° |
| 2025-10-04 22:32 | 9.51035 | -68.73781 | 37945 ft | 449 kts | 233° |
| 2025-10-04 22:34 | 9.35709 | -68.93849 | 37953 ft | 450 kts | 233° |
| 2025-10-04 22:36 | 9.20357 | -69.13921 | 37945 ft | 451 kts | 233° |
| 2025-10-04 22:38 | 9.04940 | -69.34047 | 37817 ft | 452 kts | 233° |
| 2025-10-04 22:40 | 8.89547 | -69.54106 | 37917 ft | 451 kts | 233° |
| 2025-10-04 22:42 | 8.74141 | -69.74172 | 37878 ft | 451 kts | 233° |
| 2025-10-04 22:44 | 8.58681 | -69.94240 | 37924 ft | 453 kts | 233° |
| 2025-10-04 22:47 | 8.39328 | -70.19343 | 37926 ft | 452 kts | 233° |
| 2025-10-04 22:48 | 8.25812 | -70.36848 | 37930 ft | 452 kts | 233° |
| 2025-10-04 22:51 | 8.08997 | -70.58594 | 37937 ft | 453 kts | 233° |
| 2025-10-04 22:52 | 7.95428 | -70.76118 | 37943 ft | 453 kts | 233° |
| 2025-10-04 22:54 | 7.79912 | -70.96132 | 37944 ft | 453 kts | 233° |
| 2025-10-04 22:56 | 7.64407 | -71.16104 | 37940 ft | 452 kts | 233° |
| 2025-10-04 22:58 | 7.48890 | -71.36066 | 37937 ft | 452 kts | 233° |
| 2025-10-04 23:00 | 7.33394 | -71.55974 | 37940 ft | 449 kts | 233° |
| 2025-10-04 23:02 | 7.19903 | -71.73286 | 37927 ft | 449 kts | 233° |
| 2025-10-04 23:04 | 7.02488 | -71.95607 | 37893 ft | 452 kts | 233° |
| 2025-10-04 23:06 | 6.88875 | -72.13083 | 38006 ft | 454 kts | 233° |
| 2025-10-04 23:08 | 6.71269 | -72.35657 | 38123 ft | 455 kts | 232° |
| 2025-10-04 23:10 | 6.57603 | -72.53158 | 38121 ft | 455 kts | 232° |
| 2025-10-04 23:12 | 6.39949 | -72.75740 | 38098 ft | 457 kts | 232° |
| 2025-10-04 23:14 | 6.24251 | -72.95765 | 38093 ft | 458 kts | 232° |
| 2025-10-04 23:16 | 6.08387 | -73.15924 | 37074 ft | 460 kts | 232° |
| 2025-10-04 23:18 | 5.94706 | -73.33291 | 33238 ft | 446 kts | 232° |
| 2025-10-04 23:20 | 5.77761 | -73.54782 | 28640 ft | 426 kts | 231° |
| 2025-10-04 23:22 | 5.65165 | -73.70741 | 25479 ft | 409 kts | 231° |
| 2025-10-04 23:23 | 5.56622 | -73.81559 | 24970 ft | 390 kts | 231° |
| 2025-10-04 23:24 | 5.53214 | -73.85997 | 23490 ft | 409 kts | 239° |
| 2025-10-04 23:24 | 5.50939 | -73.91295 | 21841 ft | 422 kts | 246° |
| 2025-10-04 23:25 | 5.49647 | -73.93971 | 21239 ft | 422 kts | 243° |
| 2025-10-04 23:25 | 5.47225 | -73.99111 | 21183 ft | 392 kts | 244° |
| 2025-10-04 23:26 | 5.45005 | -74.03949 | 20552 ft | 383 kts | 244° |
| 2025-10-04 23:26 | 5.42734 | -74.08936 | 19124 ft | 399 kts | 244° |
| 2025-10-04 23:27 | 5.39263 | -74.16556 | 17870 ft | 384 kts | 244° |
| 2025-10-04 23:27 | 5.37131 | -74.21236 | 17871 ft | 356 kts | 244° |
| 2025-10-04 23:28 | 5.35094 | -74.25707 | 17849 ft | 346 kts | 244° |
| 2025-10-04 23:28 | 5.33171 | -74.29923 | 17852 ft | 321 kts | 244° |
| 2025-10-04 23:29 | 5.31621 | -74.33324 | 17840 ft | 319 kts | 244° |
| 2025-10-04 23:29 | 5.30701 | -74.35341 | 17847 ft | 319 kts | 244° |
| 2025-10-04 23:30 | 5.28369 | -74.39024 | 17831 ft | 313 kts | 218° |
| 2025-10-04 23:30 | 5.24798 | -74.41841 | 17816 ft | 335 kts | 216° |
| 2025-10-04 23:31 | 5.19238 | -74.46171 | 17830 ft | 338 kts | 224° |
| 2025-10-04 23:31 | 5.17146 | -74.50370 | 17832 ft | 338 kts | 251° |
| 2025-10-04 23:32 | 5.15769 | -74.54815 | 17795 ft | 326 kts | 252° |
| 2025-10-04 23:32 | 5.14458 | -74.59089 | 17735 ft | 318 kts | 250° |
| 2025-10-04 23:33 | 5.13394 | -74.60996 | 17698 ft | 312 kts | 224° |
| 2025-10-04 23:33 | 5.09522 | -74.62299 | 16984 ft | 301 kts | 165° |
| 2025-10-04 23:34 | 5.06190 | -74.59985 | 16278 ft | 294 kts | 137° |
| 2025-10-04 23:34 | 5.03519 | -74.56951 | 15800 ft | 287 kts | 128° |
| 2025-10-04 23:35 | 4.98572 | -74.50754 | 14905 ft | 282 kts | 128° |
| 2025-10-04 23:35 | 4.97352 | -74.49217 | 14736 ft | 282 kts | 128° |
| 2025-10-04 23:36 | 4.94918 | -74.46151 | 14364 ft | 280 kts | 128° |
| 2025-10-04 23:36 | 4.92547 | -74.43166 | 13787 ft | 275 kts | 128° |
| 2025-10-04 23:37 | 4.89612 | -74.40769 | 13172 ft | 275 kts | 150° |
| 2025-10-04 23:37 | 4.87937 | -74.39875 | 12950 ft | 269 kts | 151° |
| 2025-10-04 23:38 | 4.84835 | -74.38246 | 12960 ft | 232 kts | 152° |
| 2025-10-04 23:38 | 4.80772 | -74.36139 | 12962 ft | 217 kts | 152° |
| 2025-10-04 23:39 | 4.76794 | -74.34016 | 12954 ft | 214 kts | 148° |
| 2025-10-04 23:39 | 4.75507 | -74.33239 | 12976 ft | 216 kts | 148° |
| 2025-10-04 23:40 | 4.72924 | -74.31690 | 12993 ft | 218 kts | 148° |
| 2025-10-04 23:40 | 4.70281 | -74.30113 | 12982 ft | 222 kts | 148° |
| 2025-10-04 23:41 | 4.67698 | -74.28441 | 12982 ft | 218 kts | 137° |
| 2025-10-04 23:41 | 4.65728 | -74.26613 | 12981 ft | 168 kts | 136° |
| 2025-10-04 23:42 | 4.63916 | -74.24953 | 13101 ft | 184 kts | 137° |
| 2025-10-04 23:42 | 4.62292 | -74.22970 | 13008 ft | 185 kts | 124° |
| 2025-10-04 23:43 | 4.60837 | -74.20859 | 12967 ft | 184 kts | 124° |
| 2025-10-04 23:43 | 4.59387 | -74.18749 | 12732 ft | 184 kts | 124° |
| 2025-10-04 23:44 | 4.58022 | -74.16587 | 12195 ft | 183 kts | 115° |
| 2025-10-04 23:44 | 4.57518 | -74.14118 | 11340 ft | 181 kts | 88° |
| 2025-10-04 23:45 | 4.58282 | -74.11736 | 10773 ft | 183 kts | 60° |
| 2025-10-04 23:45 | 4.59074 | -74.10732 | 10629 ft | 184 kts | 46° |
| 2025-10-04 23:46 | 4.62582 | -74.09157 | 10259 ft | 187 kts | 14° |
| 2025-10-04 23:46 | 4.63851 | -74.08880 | 10051 ft | 186 kts | 14° |
| 2025-10-04 23:47 | 4.67306 | -74.09829 | 9208 ft | 192 kts | 301° |
| 2025-10-04 23:47 | 4.68843 | -74.11915 | 8576 ft | 173 kts | 306° |
| 2025-10-04 23:48 | 4.70094 | -74.13566 | 8367 ft | 102 kts | 309° |
| 2025-10-04 23:48 | 4.70572 | -74.14196 | 8368 ft | 35 kts | 307° |
| 2025-10-04 23:49 | 4.70606 | -74.14330 | 8368 ft | 2 kts | 176° |
| 2025-10-04 23:49 | 4.70571 | -74.14326 | 8368 ft | 3 kts | 173° |
| 2025-10-04 23:50 | 4.70551 | -74.14324 | 8368 ft | 2 kts | 173° |
| 2025-10-04 23:51 | 4.70518 | -74.14320 | 8368 ft | 0 kts | 174° |
| 2025-10-04 23:51 | 4.70488 | -74.14317 | 8369 ft | 4 kts | 173° |
| 2025-10-04 23:52 | 4.70410 | -74.14316 | 8369 ft | 6 kts | 203° |
| 2025-10-04 23:52 | 4.70334 | -74.14325 | 8368 ft | 6 kts | 136° |
| 2025-10-04 23:53 | 4.70275 | -74.14251 | 8368 ft | 7 kts | 127° |
| 2025-10-04 23:53 | 4.70242 | -74.14208 | 8368 ft | 8 kts | 127° |
| 2025-10-04 23:54 | 4.70173 | -74.14117 | 8368 ft | 9 kts | 126° |
| 2025-10-04 23:54 | 4.70098 | -74.14014 | 8368 ft | 10 kts | 126° |
| 2025-10-04 23:55 | 4.69980 | -74.13859 | 8368 ft | 8 kts | 144° |
| 2025-10-04 23:55 | 4.69882 | -74.13849 | 8368 ft | 7 kts | 131° |
| 2025-10-04 23:56 | 4.69824 | -74.13797 | 8368 ft | 3 kts | 188° |
| 2025-10-04 23:56 | 4.69782 | -74.13822 | 8368 ft | 4 kts | 216° |
| 2025-10-04 23:57 | 4.69766 | -74.13835 | 8368 ft | 0 kts | 219° |